createdAt,value
2022-12-24T00:00:58.929Z,6.00
2022-12-24T00:03:26.050Z,5.97
2022-12-24T00:05:52.969Z,5.85
2022-12-24T00:08:20.162Z,5.53
2022-12-24T00:10:51.139Z,5.13
2022-12-24T00:13:18.642Z,5.65
2022-12-24T00:15:45.753Z,5.68
2022-12-24T00:18:12.766Z,5.70
2022-12-24T00:20:39.640Z,4.87
2022-12-24T00:23:06.617Z,5.47
2022-12-24T00:25:33.629Z,5.70
2022-12-24T00:28:00.514Z,6.32
2022-12-24T00:30:27.676Z,5.82
2022-12-24T00:32:55.203Z,5.75
2022-12-24T00:35:22.260Z,5.70
2022-12-24T00:37:49.804Z,5.18
2022-12-24T00:40:18.072Z,5.43
2022-12-24T00:42:45.062Z,5.50
2022-12-24T00:45:12.672Z,4.88
2022-12-24T00:47:39.648Z,6.10
2022-12-24T00:50:07.443Z,5.40
2022-12-24T00:52:34.780Z,4.93
2022-12-24T00:55:01.998Z,5.70
2022-12-24T00:57:28.845Z,5.15
2022-12-24T00:59:55.712Z,6.18
2022-12-24T01:02:22.848Z,5.22
2022-12-24T01:05:08.595Z,6.15
2022-12-24T01:07:36.410Z,6.15
2022-12-24T01:10:03.976Z,5.38
2022-12-24T01:12:30.998Z,6.50
2022-12-24T01:14:57.909Z,6.50
2022-12-24T01:17:25.007Z,6.63
2022-12-24T01:19:52.040Z,5.57
2022-12-24T01:22:20.057Z,6.23
2022-12-24T01:24:47.190Z,6.38
2022-12-24T01:27:14.214Z,6.88
2022-12-24T01:29:41.095Z,6.00
2022-12-24T01:32:08.049Z,5.80
2022-12-24T01:34:35.054Z,6.03
2022-12-24T01:37:01.983Z,6.17
2022-12-24T01:39:28.999Z,6.40
2022-12-24T01:42:14.564Z,5.90
2022-12-24T01:44:44.320Z,6.47
2022-12-24T01:47:28.848Z,6.57
2022-12-24T01:50:04.141Z,6.32
2022-12-24T01:52:37.065Z,6.47
2022-12-24T01:55:12.085Z,6.87
2022-12-24T01:57:45.045Z,6.18
2022-12-24T02:00:15.639Z,6.90
2022-12-24T02:02:46.683Z,6.70
2022-12-24T02:05:25.651Z,5.93
2022-12-24T02:07:52.899Z,6.57
2022-12-24T02:10:20.021Z,6.15
2022-12-24T02:12:48.248Z,5.47
2022-12-24T02:15:18.195Z,6.43
2022-12-24T02:17:54.229Z,6.25
2022-12-24T02:21:08.507Z,6.30
2022-12-24T02:23:50.306Z,6.23
2022-12-24T02:26:52.123Z,6.97
2022-12-24T02:29:19.003Z,6.50
2022-12-24T02:32:18.230Z,5.15
2022-12-24T02:34:53.703Z,6.03
2022-12-24T02:37:28.200Z,5.93
2022-12-24T02:40:03.197Z,6.68
2022-12-24T02:42:40.451Z,6.63
2022-12-24T02:45:32.110Z,6.85
2022-12-24T02:48:00.247Z,6.43
2022-12-24T02:50:27.598Z,6.18
2022-12-24T02:52:54.437Z,6.90
2022-12-24T02:55:42.176Z,6.28
2022-12-24T02:58:12.066Z,5.63
2022-12-24T03:01:18.016Z,6.75
2022-12-24T03:04:00.179Z,6.38
2022-12-24T03:06:55.968Z,7.03
2022-12-24T03:09:32.709Z,6.57
2022-12-24T03:12:11.652Z,6.57
2022-12-24T03:14:40.591Z,6.93
2022-12-24T03:17:09.034Z,7.05
2022-12-24T03:19:36.397Z,7.25
2022-12-24T03:22:07.312Z,6.78
2022-12-24T03:24:34.238Z,7.18
2022-12-24T03:27:01.989Z,6.88
2022-12-24T03:29:28.902Z,6.40
2022-12-24T03:32:03.711Z,6.40
2022-12-24T03:34:31.113Z,6.97
2022-12-24T03:36:58.116Z,6.93
2022-12-24T03:39:25.049Z,6.68
2022-12-24T03:41:52.024Z,7.00
2022-12-24T03:44:18.894Z,7.90
2022-12-24T03:46:45.752Z,7.27
2022-12-24T03:49:12.728Z,7.47
2022-12-24T03:51:39.597Z,7.78
2022-12-24T03:54:06.534Z,7.10
2022-12-24T03:56:33.403Z,7.55
2022-12-24T03:59:00.461Z,6.50
2022-12-24T04:01:27.571Z,8.07
2022-12-24T04:03:54.546Z,6.78
2022-12-24T04:06:21.446Z,7.75
2022-12-24T04:08:48.440Z,7.20
2022-12-24T04:11:18.447Z,7.43
2022-12-24T04:13:45.588Z,7.68
2022-12-24T04:16:16.394Z,6.45
2022-12-24T04:18:43.703Z,6.97
2022-12-24T04:21:11.232Z,7.65
2022-12-24T04:23:40.148Z,7.97
2022-12-24T04:26:09.927Z,7.32
2022-12-24T04:28:38.038Z,6.93
2022-12-24T04:31:11.106Z,6.10
2022-12-24T04:33:38.509Z,6.45
2022-12-24T04:36:06.484Z,6.85
2022-12-24T04:38:34.240Z,7.23
2022-12-24T04:41:23.179Z,7.15
2022-12-24T04:43:52.230Z,7.33
2022-12-24T04:46:22.031Z,7.65
2022-12-24T04:48:50.790Z,7.22
2022-12-24T04:51:18.634Z,7.28
2022-12-24T04:53:45.746Z,7.85
2022-12-24T04:56:24.369Z,7.63
2022-12-24T04:58:51.988Z,7.47
2022-12-24T05:01:24.339Z,7.50
2022-12-24T05:03:52.751Z,6.67
2022-12-24T05:06:22.639Z,6.43
2022-12-24T05:08:50.196Z,7.72
2022-12-24T05:11:17.707Z,7.68
2022-12-24T05:13:47.546Z,8.23
2022-12-24T05:16:16.904Z,7.00
2022-12-24T05:18:44.100Z,7.15
2022-12-24T05:21:14.963Z,7.10
2022-12-24T05:24:00.542Z,7.63
2022-12-24T05:26:30.357Z,8.23
2022-12-24T05:28:59.511Z,7.15
2022-12-24T05:31:28.904Z,8.05
2022-12-24T05:33:55.872Z,8.05
2022-12-24T05:36:23.848Z,7.23
2022-12-24T05:38:51.786Z,8.75
2022-12-24T05:41:19.401Z,8.55
2022-12-24T05:43:46.675Z,8.70
2022-12-24T05:46:16.286Z,9.48
2022-12-24T05:48:43.300Z,8.88
2022-12-24T05:51:12.507Z,9.20
2022-12-24T05:53:40.473Z,9.40
2022-12-24T05:56:14.457Z,9.18
2022-12-24T05:58:42.308Z,9.15
2022-12-24T06:01:10.920Z,9.32
2022-12-24T06:03:38.414Z,9.02
2022-12-24T06:06:14.762Z,9.57
2022-12-24T06:08:42.387Z,9.48
2022-12-24T06:11:12.962Z,8.52
2022-12-24T06:13:40.911Z,8.90
2022-12-24T06:16:11.353Z,9.63
2022-12-24T06:18:38.364Z,9.38
2022-12-24T06:21:06.141Z,9.75
2022-12-24T06:23:35.056Z,9.55
2022-12-24T06:26:02.728Z,9.75
2022-12-24T06:28:31.482Z,9.50
2022-12-24T06:31:02.718Z,9.45
2022-12-24T06:33:32.137Z,10.00
2022-12-24T06:35:59.118Z,9.43
2022-12-24T06:38:26.191Z,9.35
2022-12-24T06:40:53.060Z,10.65
2022-12-24T06:43:20.046Z,10.27
2022-12-24T06:45:48.858Z,10.52
2022-12-24T06:48:16.375Z,10.18
2022-12-24T06:50:43.680Z,10.50
2022-12-24T06:53:11.098Z,10.07
2022-12-24T06:55:38.569Z,10.10
2022-12-24T06:58:05.534Z,9.95
2022-12-24T07:00:32.487Z,10.30
2022-12-24T07:02:59.734Z,10.10
2022-12-24T07:05:27.535Z,10.80
2022-12-24T07:07:54.673Z,11.07
2022-12-24T07:10:22.216Z,10.65
2022-12-24T07:12:49.323Z,10.73
2022-12-24T07:15:17.132Z,11.32
2022-12-24T07:17:44.266Z,10.60
2022-12-24T07:20:14.727Z,11.27
2022-12-24T07:22:42.739Z,11.10
2022-12-24T07:25:11.166Z,11.20
2022-12-24T07:27:38.587Z,12.00
2022-12-24T07:30:06.533Z,11.55
2022-12-24T07:32:33.904Z,12.25
2022-12-24T07:35:00.765Z,11.90
2022-12-24T07:37:27.651Z,11.65
2022-12-24T07:39:54.625Z,11.98
2022-12-24T07:42:21.709Z,12.10
2022-12-24T07:44:48.588Z,12.30
2022-12-24T07:47:15.650Z,12.07
2022-12-24T07:49:42.773Z,12.77
2022-12-24T07:52:09.708Z,12.63
2022-12-24T07:54:36.583Z,12.30
2022-12-24T07:57:03.514Z,12.00
2022-12-24T07:59:30.538Z,11.45
2022-12-24T08:01:57.558Z,11.38
2022-12-24T08:04:24.814Z,9.98
2022-12-24T08:06:52.203Z,10.05
2022-12-24T08:09:19.033Z,10.18
2022-12-24T08:11:51.642Z,9.77
2022-12-24T08:14:19.296Z,9.13
2022-12-24T08:16:46.332Z,9.35
2022-12-24T08:19:13.344Z,9.77
2022-12-24T08:21:40.554Z,10.53
2022-12-24T08:24:07.626Z,10.07
2022-12-24T08:26:34.644Z,10.40
2022-12-24T08:29:02.949Z,9.70
2022-12-24T08:31:30.385Z,9.93
2022-12-24T08:33:57.321Z,10.80
2022-12-24T08:36:24.162Z,10.45
2022-12-24T08:38:50.980Z,10.45
2022-12-24T08:41:17.915Z,10.93
2022-12-24T08:43:44.811Z,10.95
2022-12-24T08:46:11.826Z,11.73
2022-12-24T08:48:38.859Z,12.15
2022-12-24T08:51:10.236Z,12.63
2022-12-24T08:53:37.959Z,12.70
2022-12-24T08:56:06.854Z,13.40
2022-12-24T08:58:34.023Z,13.88
2022-12-24T09:01:01.751Z,16.17
2022-12-24T09:03:28.764Z,13.43
2022-12-24T09:05:55.831Z,12.88
2022-12-24T09:08:22.726Z,13.43
2022-12-24T09:10:49.587Z,12.38
2022-12-24T09:13:16.466Z,12.60
2022-12-24T09:15:43.370Z,12.50
2022-12-24T09:18:10.688Z,12.43
2022-12-24T09:20:42.699Z,12.60
2022-12-24T09:23:12.627Z,13.15
2022-12-24T09:25:44.048Z,12.43
2022-12-24T09:28:10.941Z,12.15
2022-12-24T09:30:38.227Z,12.25
2022-12-24T09:33:05.213Z,11.73
2022-12-24T09:35:32.019Z,12.15
2022-12-24T09:38:04.514Z,12.00
2022-12-24T09:40:39.522Z,11.80
2022-12-24T09:43:33.993Z,12.18
2022-12-24T09:46:03.700Z,11.45
2022-12-24T09:48:34.106Z,10.85
2022-12-24T09:51:10.177Z,11.30
2022-12-24T09:53:45.976Z,10.35
2022-12-24T09:56:27.141Z,11.02
2022-12-24T09:59:02.898Z,9.80
2022-12-24T10:01:31.823Z,10.90
2022-12-24T10:04:16.321Z,10.43
2022-12-24T10:07:07.489Z,11.20
2022-12-24T10:09:37.387Z,11.20
2022-12-24T10:12:23.307Z,11.02
2022-12-24T10:15:05.869Z,9.90
2022-12-24T10:17:41.654Z,11.00
2022-12-24T10:20:41.932Z,10.63
2022-12-24T10:23:17.470Z,10.90
2022-12-24T10:25:59.694Z,11.15
2022-12-24T10:28:42.172Z,12.32
2022-12-24T10:31:09.964Z,10.88
2022-12-24T10:33:47.052Z,9.73
2022-12-24T10:36:19.156Z,10.38
2022-12-24T10:38:46.587Z,9.95
2022-12-24T10:41:15.340Z,10.70
2022-12-24T10:43:45.120Z,10.73
2022-12-24T10:46:35.361Z,10.73
2022-12-24T10:49:05.396Z,10.10
2022-12-24T10:51:43.850Z,10.50
2022-12-24T10:54:26.225Z,10.68
2022-12-24T10:57:01.794Z,10.77
2022-12-24T10:59:42.704Z,10.60
2022-12-24T11:02:35.899Z,9.82
2022-12-24T11:05:07.986Z,9.80
2022-12-24T11:07:34.954Z,10.17
2022-12-24T11:10:07.260Z,9.43
2022-12-24T11:12:38.984Z,9.02
2022-12-24T11:15:06.098Z,9.88
2022-12-24T11:17:34.240Z,10.00
2022-12-24T11:20:03.496Z,9.75
2022-12-24T11:22:32.581Z,10.60
2022-12-24T11:25:02.474Z,11.03
2022-12-24T11:27:46.160Z,10.77
2022-12-24T11:30:16.015Z,10.30
2022-12-24T11:32:47.421Z,10.13
2022-12-24T11:35:23.351Z,9.73
2022-12-24T11:38:18.190Z,10.23
2022-12-24T11:40:48.110Z,9.82
2022-12-24T11:43:20.677Z,9.05
2022-12-24T11:45:57.805Z,9.38
2022-12-24T11:48:35.280Z,9.13
2022-12-24T11:51:04.950Z,9.93
2022-12-24T11:53:48.914Z,10.10
2022-12-24T11:56:37.247Z,10.40
2022-12-24T11:59:17.771Z,10.10
2022-12-24T12:02:13.519Z,9.77
2022-12-24T12:04:44.407Z,10.27
2022-12-24T12:07:17.748Z,10.57
2022-12-24T12:09:47.540Z,10.52
2022-12-24T12:12:49.723Z,10.10
2022-12-24T12:15:26.120Z,8.88
2022-12-24T12:18:17.586Z,9.48
2022-12-24T12:21:16.717Z,10.18
2022-12-24T12:24:13.921Z,9.55
2022-12-24T12:26:42.982Z,8.63
2022-12-24T12:29:37.884Z,9.35
2022-12-24T12:32:13.289Z,9.25
2022-12-24T12:34:49.890Z,9.05
2022-12-24T12:37:32.755Z,8.30
2022-12-24T12:39:59.704Z,8.40
2022-12-24T12:42:31.503Z,9.00
2022-12-24T12:45:36.090Z,9.30
2022-12-24T12:48:09.810Z,8.13
2022-12-24T12:50:52.646Z,7.57
2022-12-24T12:53:34.538Z,9.00
2022-12-24T12:56:21.102Z,8.38
2022-12-24T12:58:54.505Z,8.45
2022-12-24T13:01:32.513Z,9.00
2022-12-24T13:04:17.778Z,8.80
2022-12-24T13:07:05.925Z,9.48
2022-12-24T13:10:02.283Z,9.02
2022-12-24T13:12:47.833Z,8.98
2022-12-24T13:15:14.627Z,8.63
2022-12-24T13:18:05.718Z,9.80
2022-12-24T13:20:36.990Z,9.68
2022-12-24T13:23:17.840Z,8.57
2022-12-24T13:25:51.287Z,8.30
2022-12-24T13:28:34.778Z,7.70
2022-12-24T13:31:01.662Z,7.68
2022-12-24T13:33:37.676Z,7.10
2022-12-24T13:36:08.729Z,6.38
2022-12-24T13:38:53.372Z,7.60
2022-12-24T13:41:40.598Z,6.55
2022-12-24T13:44:12.928Z,6.73
2022-12-24T13:46:58.221Z,7.07
2022-12-24T13:49:36.186Z,6.40
2022-12-24T13:52:11.903Z,7.50
2022-12-24T13:54:54.980Z,6.57
2022-12-24T13:57:53.210Z,6.47
2022-12-24T14:00:22.996Z,6.57
2022-12-24T14:02:57.929Z,6.50
2022-12-24T14:05:42.937Z,6.35
2022-12-24T14:08:13.539Z,6.20
2022-12-24T14:10:45.042Z,6.30
2022-12-24T14:13:39.801Z,6.68
2022-12-24T14:16:30.571Z,6.70
2022-12-24T14:19:01.837Z,6.93
2022-12-24T14:21:34.955Z,6.85
2022-12-24T14:24:16.542Z,6.90
2022-12-24T14:26:50.537Z,7.68
2022-12-24T14:29:24.994Z,7.00
2022-12-24T14:31:57.540Z,7.15
2022-12-24T14:34:24.517Z,7.53
2022-12-24T14:36:54.392Z,7.38
2022-12-24T14:39:34.483Z,7.70
2022-12-24T14:42:23.091Z,7.95
2022-12-24T14:45:14.315Z,7.25
2022-12-24T14:48:17.396Z,6.43
2022-12-24T14:50:44.285Z,6.00
2022-12-24T14:53:49.498Z,6.13
2022-12-24T14:56:22.599Z,6.00
2022-12-24T14:58:50.020Z,6.00
2022-12-24T15:01:30.726Z,6.20
2022-12-24T15:04:11.347Z,5.32
2022-12-24T15:06:49.362Z,5.38
2022-12-24T15:09:29.477Z,5.40
2022-12-24T15:12:00.302Z,5.33
2022-12-24T15:14:30.086Z,5.60
2022-12-24T15:16:58.790Z,5.50
2022-12-24T15:19:39.163Z,5.50
2022-12-24T15:22:11.815Z,4.90
2022-12-24T15:24:46.653Z,4.85
2022-12-24T15:27:19.616Z,5.22
2022-12-24T15:29:49.323Z,5.18
2022-12-24T15:32:18.617Z,5.38
2022-12-24T15:34:50.914Z,5.13
2022-12-24T15:37:31.407Z,5.47
2022-12-24T15:40:04.815Z,5.07
2022-12-24T15:42:31.922Z,4.85
2022-12-24T15:45:12.616Z,5.30
2022-12-24T15:48:01.639Z,5.35
2022-12-24T15:50:34.701Z,5.53
2022-12-24T15:53:20.753Z,5.50
2022-12-24T15:56:09.461Z,5.93
2022-12-24T15:58:44.755Z,6.22
2022-12-24T16:01:15.441Z,6.35
2022-12-24T16:04:12.552Z,7.15
2022-12-24T16:06:58.860Z,6.75
2022-12-24T16:16:58.755Z,7.00
2022-12-24T16:19:37.679Z,7.37
2022-12-24T16:22:25.789Z,6.67
2022-12-24T16:24:52.800Z,7.57
2022-12-24T16:27:19.657Z,6.90
2022-12-24T16:29:47.090Z,7.00
2022-12-24T16:32:41.422Z,6.97
2022-12-24T16:35:26.639Z,9.13
2022-12-24T16:37:54.518Z,28.20
2022-12-24T16:40:26.857Z,24.63
2022-12-24T16:43:14.298Z,10.20
2022-12-24T16:45:42.524Z,7.57
2022-12-24T16:48:11.422Z,8.00
2022-12-24T16:50:38.589Z,7.97
2022-12-24T16:53:05.416Z,11.87
2022-12-24T16:55:32.291Z,8.37
2022-12-24T16:57:59.176Z,12.07
2022-12-24T17:00:26.287Z,7.10
2022-12-24T17:02:53.879Z,8.77
2022-12-24T17:05:23.927Z,9.30
2022-12-24T17:07:51.314Z,7.20
2022-12-24T17:10:18.405Z,7.53
2022-12-24T17:12:45.215Z,7.97
2022-12-24T17:15:12.345Z,9.23
2022-12-24T17:17:39.236Z,6.43
2022-12-24T17:20:07.258Z,7.37
2022-12-24T17:22:34.310Z,9.43
2022-12-24T17:25:01.248Z,7.90
2022-12-24T17:27:28.257Z,10.65
2022-12-24T17:29:58.179Z,8.63
2022-12-24T17:32:28.052Z,7.17
2022-12-24T17:34:54.954Z,9.45
2022-12-24T17:37:21.944Z,7.63
2022-12-24T17:39:48.840Z,8.00
2022-12-24T17:42:15.699Z,8.07
2022-12-24T17:44:42.542Z,9.27
2022-12-24T17:47:09.494Z,8.50
2022-12-24T18:38:47.088Z,9.73
2022-12-24T18:41:17.081Z,13.35
2022-12-24T18:43:46.963Z,17.02
2022-12-24T18:46:16.638Z,16.13
2022-12-24T18:48:43.784Z,17.55
2022-12-24T19:01:17.784Z,22.77
2022-12-24T19:03:44.950Z,23.27
2022-12-24T19:06:12.370Z,25.42
2022-12-24T19:11:27.575Z,27.30
2022-12-24T19:13:54.516Z,26.40
2022-12-24T19:16:22.036Z,26.42
2022-12-24T19:18:49.295Z,24.13
2022-12-24T19:21:17.592Z,22.08
2022-12-24T19:23:45.083Z,20.83
2022-12-24T19:26:13.380Z,20.73
2022-12-24T19:28:40.437Z,20.97
2022-12-24T19:31:12.970Z,21.25
2022-12-24T19:33:45.180Z,21.70
2022-12-24T19:36:17.866Z,21.70
2022-12-24T19:38:45.285Z,22.45
2022-12-24T19:41:14.629Z,24.50
2022-12-24T20:15:58.187Z,22.40
2022-12-24T20:18:25.158Z,24.37
2022-12-24T20:20:52.043Z,23.63
2022-12-24T20:23:19.066Z,23.37
2022-12-24T20:25:46.017Z,22.77
2022-12-24T20:28:12.848Z,25.07
2022-12-24T20:30:40.438Z,24.20
2022-12-24T20:33:07.351Z,24.83
2022-12-24T20:35:35.779Z,25.40
2022-12-24T20:38:02.797Z,26.30
2022-12-24T20:40:29.634Z,29.87
2022-12-24T20:42:56.794Z,27.87
2022-12-24T20:45:23.686Z,27.87
2022-12-24T20:47:50.543Z,28.57
2022-12-24T20:50:17.647Z,27.33
2022-12-24T20:52:44.672Z,27.37
2022-12-24T20:55:11.549Z,25.90
2022-12-24T20:57:38.497Z,28.27
2022-12-24T21:00:05.833Z,29.80
2022-12-24T21:02:32.866Z,27.83
2022-12-24T21:05:08.182Z,29.53
2022-12-24T21:07:38.978Z,27.97
2022-12-24T21:10:10.286Z,29.80
2022-12-24T21:12:49.396Z,29.43
2022-12-24T21:15:17.935Z,28.40
2022-12-24T21:17:44.957Z,28.10
2022-12-24T21:20:13.044Z,31.73
2022-12-24T21:22:40.743Z,28.97
2022-12-24T21:25:09.279Z,29.13
2022-12-24T21:27:36.738Z,28.60
2022-12-24T21:30:08.611Z,28.40
2022-12-24T21:32:36.387Z,27.43
2022-12-24T21:35:04.282Z,27.47
2022-12-24T21:37:31.271Z,26.60
2022-12-24T21:39:58.163Z,25.03
2022-12-24T21:42:26.126Z,26.47
2022-12-24T21:44:53.189Z,28.10
2022-12-24T21:47:20.066Z,27.87
2022-12-24T21:50:05.755Z,27.73
2022-12-24T21:52:33.121Z,29.40
2022-12-24T21:55:00.277Z,29.90
2022-12-24T21:57:46.015Z,31.43
2022-12-24T22:00:22.856Z,28.60
2022-12-24T22:05:26.275Z,27.30
2022-12-24T22:08:13.141Z,26.73
2022-12-24T22:10:58.851Z,27.03
2022-12-24T22:13:26.055Z,27.20
2022-12-24T22:15:54.271Z,25.87
2022-12-24T22:18:24.798Z,25.03
2022-12-24T22:20:52.412Z,26.00
2022-12-24T22:23:20.120Z,25.20
2022-12-24T22:25:47.582Z,25.00
2022-12-24T22:28:14.760Z,26.57
2022-12-24T22:30:43.027Z,27.73
2022-12-24T22:33:10.688Z,26.90
2022-12-24T22:35:39.625Z,26.00
2022-12-24T22:38:08.100Z,23.47
2022-12-24T22:40:34.931Z,23.27
2022-12-24T22:43:01.817Z,22.13
2022-12-24T22:45:28.722Z,23.87
2022-12-24T22:47:57.651Z,23.20
2022-12-24T22:50:25.170Z,22.50
2022-12-24T22:52:53.411Z,21.37
2022-12-24T22:55:21.039Z,22.97
2022-12-24T22:57:48.157Z,27.87
2022-12-24T23:00:37.230Z,35.70
2022-12-24T23:03:06.217Z,53.43
2022-12-24T23:05:33.568Z,54.30
2022-12-24T23:08:00.883Z,56.03
2022-12-24T23:10:28.108Z,58.03
2022-12-24T23:13:15.532Z,55.43
2022-12-24T23:15:42.782Z,42.30
2022-12-24T23:18:09.870Z,38.90
2022-12-24T23:20:43.148Z,28.63
2022-12-24T23:23:10.074Z,24.40
2022-12-24T23:25:37.127Z,28.47
2022-12-24T23:28:04.705Z,29.07
2022-12-24T23:30:31.679Z,27.13
2022-12-24T23:32:58.579Z,23.13
2022-12-24T23:35:25.523Z,25.60
2022-12-24T23:37:52.479Z,24.60
2022-12-24T23:40:19.639Z,25.33
2022-12-24T23:42:46.575Z,22.63
2022-12-24T23:45:13.783Z,24.00
2022-12-24T23:47:40.657Z,24.97
2022-12-24T23:50:08.351Z,25.30
2022-12-24T23:52:35.310Z,24.90
2022-12-24T23:55:02.319Z,24.13
2022-12-24T23:57:29.177Z,24.67
2022-12-24T23:59:56.123Z,24.83
